sensor_id;sensor_type;location;lat;lon;timestamp;temperature;humidity
11142;DHT22;5625;50.122;19.864;2023-04-15T00:01:57;11.00;99.90
11142;DHT22;5625;50.122;19.864;2023-04-15T00:04:26;11.00;99.90
11142;DHT22;5625;50.122;19.864;2023-04-15T00:06:54;11.00;99.90
11142;DHT22;5625;50.122;19.864;2023-04-15T00:09:24;10.90;99.90
11142;DHT22;5625;50.122;19.864;2023-04-15T00:11:52;10.90;94.90
11142;DHT22;5625;50.122;19.864;2023-04-15T00:14:20;10.80;76.00
11142;DHT22;5625;50.122;19.864;2023-04-15T00:16:48;10.80;66.40
11142;DHT22;5625;50.122;19.864;2023-04-15T00:19:21;10.80;55.90
11142;DHT22;5625;50.122;19.864;2023-04-15T00:21:50;10.80;64.80
11142;DHT22;5625;50.122;19.864;2023-04-15T00:24:19;10.80;72.20
11142;DHT22;5625;50.122;19.864;2023-04-15T00:26:48;10.70;87.60
11142;DHT22;5625;50.122;19.864;2023-04-15T00:29:16;10.70;91.30
11142;DHT22;5625;50.122;19.864;2023-04-15T00:31:44;10.70;91.90
11142;DHT22;5625;50.122;19.864;2023-04-15T00:34:13;10.70;92.50
11142;DHT22;5625;50.122;19.864;2023-04-15T00:36:41;10.60;94.50
11142;DHT22;5625;50.122;19.864;2023-04-15T00:39:09;10.60;88.00
11142;DHT22;5625;50.122;19.864;2023-04-15T00:41:36;10.50;62.70
11142;DHT22;5625;50.122;19.864;2023-04-15T00:44:07;10.50;63.80
11142;DHT22;5625;50.122;19.864;2023-04-15T00:46:36;10.50;51.20
11142;DHT22;5625;50.122;19.864;2023-04-15T00:49:06;10.50;40.80
11142;DHT22;5625;50.122;19.864;2023-04-15T00:51:34;10.50;33.60
11142;DHT22;5625;50.122;19.864;2023-04-15T00:54:03;10.50;30.10
11142;DHT22;5625;50.122;19.864;2023-04-15T00:56:35;10.50;30.90
11142;DHT22;5625;50.122;19.864;2023-04-15T00:59:04;10.50;39.00
11142;DHT22;5625;50.122;19.864;2023-04-15T01:01:35;10.40;41.20
11142;DHT22;5625;50.122;19.864;2023-04-15T01:04:04;10.50;39.90
11142;DHT22;5625;50.122;19.864;2023-04-15T01:06:33;10.40;39.20
11142;DHT22;5625;50.122;19.864;2023-04-15T01:09:01;10.40;49.50
11142;DHT22;5625;50.122;19.864;2023-04-15T01:11:29;10.40;66.80
11142;DHT22;5625;50.122;19.864;2023-04-15T01:13:59;10.30;78.70
11142;DHT22;5625;50.122;19.864;2023-04-15T01:16:27;10.30;81.00
11142;DHT22;5625;50.122;19.864;2023-04-15T01:18:57;10.30;85.20
11142;DHT22;5625;50.122;19.864;2023-04-15T01:21:26;10.20;91.50
11142;DHT22;5625;50.122;19.864;2023-04-15T01:23:54;10.30;91.00
11142;DHT22;5625;50.122;19.864;2023-04-15T01:26:25;10.20;82.80
11142;DHT22;5625;50.122;19.864;2023-04-15T01:28:54;10.20;78.70
11142;DHT22;5625;50.122;19.864;2023-04-15T01:31:23;10.20;66.70
11142;DHT22;5625;50.122;19.864;2023-04-15T01:33:51;10.20;63.00
11142;DHT22;5625;50.122;19.864;2023-04-15T01:36:19;10.20;60.90
11142;DHT22;5625;50.122;19.864;2023-04-15T01:38:47;10.20;60.20
11142;DHT22;5625;50.122;19.864;2023-04-15T01:41:16;10.20;63.80
11142;DHT22;5625;50.122;19.864;2023-04-15T01:43:47;10.10;68.00
11142;DHT22;5625;50.122;19.864;2023-04-15T01:46:15;10.10;72.20
11142;DHT22;5625;50.122;19.864;2023-04-15T01:48:43;10.10;65.90
11142;DHT22;5625;50.122;19.864;2023-04-15T01:51:11;10.10;62.50
11142;DHT22;5625;50.122;19.864;2023-04-15T01:53:39;10.10;60.30
11142;DHT22;5625;50.122;19.864;2023-04-15T01:56:07;10.10;54.90
11142;DHT22;5625;50.122;19.864;2023-04-15T01:58:35;10.10;52.30
11142;DHT22;5625;50.122;19.864;2023-04-15T02:01:05;10.10;52.80
11142;DHT22;5625;50.122;19.864;2023-04-15T02:03:34;10.10;48.20
11142;DHT22;5625;50.122;19.864;2023-04-15T02:06:03;10.10;46.70
11142;DHT22;5625;50.122;19.864;2023-04-15T02:08:31;10.00;39.00
11142;DHT22;5625;50.122;19.864;2023-04-15T02:10:59;10.00;48.40
11142;DHT22;5625;50.122;19.864;2023-04-15T02:13:28;10.00;62.00
11142;DHT22;5625;50.122;19.864;2023-04-15T02:15:56;10.00;65.60
11142;DHT22;5625;50.122;19.864;2023-04-15T02:18:25;10.00;72.40
11142;DHT22;5625;50.122;19.864;2023-04-15T02:20:53;9.90;74.80
11142;DHT22;5625;50.122;19.864;2023-04-15T02:23:22;9.90;73.10
11142;DHT22;5625;50.122;19.864;2023-04-15T02:25:50;9.90;81.10
11142;DHT22;5625;50.122;19.864;2023-04-15T02:28:19;9.80;87.30
11142;DHT22;5625;50.122;19.864;2023-04-15T02:30:47;9.80;91.00
11142;DHT22;5625;50.122;19.864;2023-04-15T02:33:19;9.80;91.60
11142;DHT22;5625;50.122;19.864;2023-04-15T02:35:49;9.80;94.30
11142;DHT22;5625;50.122;19.864;2023-04-15T02:38:17;9.70;93.50
11142;DHT22;5625;50.122;19.864;2023-04-15T02:40:45;9.80;92.30
11142;DHT22;5625;50.122;19.864;2023-04-15T02:43:15;9.80;91.30
11142;DHT22;5625;50.122;19.864;2023-04-15T02:45:44;9.70;91.30
11142;DHT22;5625;50.122;19.864;2023-04-15T02:48:13;9.70;91.10
11142;DHT22;5625;50.122;19.864;2023-04-15T02:50:44;9.70;92.10
11142;DHT22;5625;50.122;19.864;2023-04-15T02:53:13;9.70;91.00
11142;DHT22;5625;50.122;19.864;2023-04-15T02:55:41;9.70;91.60
11142;DHT22;5625;50.122;19.864;2023-04-15T02:58:09;9.60;91.60
11142;DHT22;5625;50.122;19.864;2023-04-15T03:00:38;9.60;92.40
11142;DHT22;5625;50.122;19.864;2023-04-15T03:03:06;9.60;93.40
11142;DHT22;5625;50.122;19.864;2023-04-15T03:05:36;9.50;92.70
11142;DHT22;5625;50.122;19.864;2023-04-15T03:08:05;9.50;91.80
11142;DHT22;5625;50.122;19.864;2023-04-15T03:10:34;9.50;91.90
11142;DHT22;5625;50.122;19.864;2023-04-15T03:13:02;9.40;92.60
11142;DHT22;5625;50.122;19.864;2023-04-15T03:15:31;9.40;92.70
11142;DHT22;5625;50.122;19.864;2023-04-15T03:18:01;9.40;93.50
11142;DHT22;5625;50.122;19.864;2023-04-15T03:20:29;9.30;96.10
11142;DHT22;5625;50.122;19.864;2023-04-15T03:22:58;9.30;98.30
11142;DHT22;5625;50.122;19.864;2023-04-15T03:25:25;9.20;99.90
11142;DHT22;5625;50.122;19.864;2023-04-15T03:27:55;9.20;99.90
11142;DHT22;5625;50.122;19.864;2023-04-15T03:30:23;9.20;99.90
11142;DHT22;5625;50.122;19.864;2023-04-15T03:32:51;9.20;99.90
11142;DHT22;5625;50.122;19.864;2023-04-15T03:35:19;9.10;99.90
11142;DHT22;5625;50.122;19.864;2023-04-15T03:37:48;9.10;99.90
11142;DHT22;5625;50.122;19.864;2023-04-15T03:40:16;9.10;99.90
11142;DHT22;5625;50.122;19.864;2023-04-15T03:42:44;9.10;99.90
11142;DHT22;5625;50.122;19.864;2023-04-15T03:45:14;9.10;99.90
11142;DHT22;5625;50.122;19.864;2023-04-15T03:47:42;9.10;99.90
11142;DHT22;5625;50.122;19.864;2023-04-15T03:50:10;9.10;99.90
11142;DHT22;5625;50.122;19.864;2023-04-15T03:52:38;9.00;99.90
11142;DHT22;5625;50.122;19.864;2023-04-15T03:55:07;9.00;99.90
11142;DHT22;5625;50.122;19.864;2023-04-15T03:57:35;9.00;99.90
11142;DHT22;5625;50.122;19.864;2023-04-15T04:00:06;9.00;99.60
11142;DHT22;5625;50.122;19.864;2023-04-15T04:02:37;9.00;99.60
11142;DHT22;5625;50.122;19.864;2023-04-15T04:05:05;9.00;98.90
11142;DHT22;5625;50.122;19.864;2023-04-15T04:07:33;9.00;98.40
11142;DHT22;5625;50.122;19.864;2023-04-15T04:10:02;9.00;99.00
11142;DHT22;5625;50.122;19.864;2023-04-15T04:12:30;9.00;99.90
11142;DHT22;5625;50.122;19.864;2023-04-15T04:14:58;9.00;99.90
11142;DHT22;5625;50.122;19.864;2023-04-15T04:17:26;9.00;99.90
11142;DHT22;5625;50.122;19.864;2023-04-15T04:19:56;8.90;99.00
11142;DHT22;5625;50.122;19.864;2023-04-15T04:22:24;9.00;98.70
11142;DHT22;5625;50.122;19.864;2023-04-15T04:24:52;9.00;98.30
11142;DHT22;5625;50.122;19.864;2023-04-15T04:27:20;9.00;99.70
11142;DHT22;5625;50.122;19.864;2023-04-15T04:29:48;9.00;99.90
11142;DHT22;5625;50.122;19.864;2023-04-15T04:32:16;9.00;99.90
11142;DHT22;5625;50.122;19.864;2023-04-15T04:34:44;9.10;99.90
11142;DHT22;5625;50.122;19.864;2023-04-15T04:37:14;9.10;99.90
11142;DHT22;5625;50.122;19.864;2023-04-15T04:39:45;9.10;99.90
11142;DHT22;5625;50.122;19.864;2023-04-15T04:42:13;9.10;99.90
11142;DHT22;5625;50.122;19.864;2023-04-15T04:44:41;9.10;99.90
11142;DHT22;5625;50.122;19.864;2023-04-15T04:47:09;9.10;99.90
11142;DHT22;5625;50.122;19.864;2023-04-15T04:49:38;9.10;99.90
11142;DHT22;5625;50.122;19.864;2023-04-15T04:52:06;9.10;99.90
11142;DHT22;5625;50.122;19.864;2023-04-15T04:54:36;9.10;99.90
11142;DHT22;5625;50.122;19.864;2023-04-15T04:57:04;9.10;99.90
11142;DHT22;5625;50.122;19.864;2023-04-15T04:59:33;9.10;99.90
11142;DHT22;5625;50.122;19.864;2023-04-15T05:02:01;9.20;99.90
11142;DHT22;5625;50.122;19.864;2023-04-15T05:04:29;9.20;99.90
11142;DHT22;5625;50.122;19.864;2023-04-15T05:06:57;9.20;99.60
11142;DHT22;5625;50.122;19.864;2023-04-15T05:09:26;9.20;94.60
11142;DHT22;5625;50.122;19.864;2023-04-15T05:11:56;9.30;94.20
11142;DHT22;5625;50.122;19.864;2023-04-15T05:14:25;9.30;92.50
11142;DHT22;5625;50.122;19.864;2023-04-15T05:16:53;9.30;89.40
11142;DHT22;5625;50.122;19.864;2023-04-15T05:19:21;9.50;91.10
11142;DHT22;5625;50.122;19.864;2023-04-15T05:21:49;9.80;73.90
11142;DHT22;5625;50.122;19.864;2023-04-15T05:24:17;10.00;66.10
11142;DHT22;5625;50.122;19.864;2023-04-15T05:26:45;10.00;51.60
11142;DHT22;5625;50.122;19.864;2023-04-15T05:29:14;10.00;46.70
11142;DHT22;5625;50.122;19.864;2023-04-15T05:31:43;10.00;48.00
11142;DHT22;5625;50.122;19.864;2023-04-15T05:34:11;10.10;46.70
11142;DHT22;5625;50.122;19.864;2023-04-15T05:36:41;10.20;46.80
11142;DHT22;5625;50.122;19.864;2023-04-15T05:39:09;10.60;36.50
11142;DHT22;5625;50.122;19.864;2023-04-15T05:41:37;11.10;26.20
11142;DHT22;5625;50.122;19.864;2023-04-15T05:44:05;12.00;1.00
11142;DHT22;5625;50.122;19.864;2023-04-15T05:46:35;12.80;1.00
11142;DHT22;5625;50.122;19.864;2023-04-15T05:49:03;12.90;1.00
11142;DHT22;5625;50.122;19.864;2023-04-15T05:51:34;12.80;1.00
11142;DHT22;5625;50.122;19.864;2023-04-15T05:54:03;12.60;1.00
11142;DHT22;5625;50.122;19.864;2023-04-15T05:56:33;12.70;1.00
11142;DHT22;5625;50.122;19.864;2023-04-15T05:59:01;13.10;1.00
11142;DHT22;5625;50.122;19.864;2023-04-15T06:01:29;13.00;1.00
11142;DHT22;5625;50.122;19.864;2023-04-15T06:03:59;13.00;1.00
11142;DHT22;5625;50.122;19.864;2023-04-15T06:06:27;13.10;1.00
11142;DHT22;5625;50.122;19.864;2023-04-15T06:08:55;13.40;1.00
11142;DHT22;5625;50.122;19.864;2023-04-15T06:11:23;13.50;1.00
11142;DHT22;5625;50.122;19.864;2023-04-15T06:13:52;13.50;1.00
11142;DHT22;5625;50.122;19.864;2023-04-15T06:16:20;13.50;1.00
11142;DHT22;5625;50.122;19.864;2023-04-15T06:18:48;13.40;1.00
11142;DHT22;5625;50.122;19.864;2023-04-15T06:21:18;13.40;1.00
11142;DHT22;5625;50.122;19.864;2023-04-15T06:23:46;13.30;1.00
11142;DHT22;5625;50.122;19.864;2023-04-15T06:26:14;13.20;1.00
11142;DHT22;5625;50.122;19.864;2023-04-15T06:28:42;13.20;99.90
11142;DHT22;5625;50.122;19.864;2023-04-15T06:31:10;13.20;99.90
11142;DHT22;5625;50.122;19.864;2023-04-15T06:33:38;13.10;99.90
11142;DHT22;5625;50.122;19.864;2023-04-15T06:36:06;13.00;99.90
11142;DHT22;5625;50.122;19.864;2023-04-15T06:38:36;13.00;99.90
11142;DHT22;5625;50.122;19.864;2023-04-15T06:41:04;13.10;99.90
11142;DHT22;5625;50.122;19.864;2023-04-15T06:43:35;13.30;99.90
11142;DHT22;5625;50.122;19.864;2023-04-15T06:46:03;13.50;99.90
11142;DHT22;5625;50.122;19.864;2023-04-15T06:48:34;13.50;99.90
11142;DHT22;5625;50.122;19.864;2023-04-15T06:51:03;13.40;99.90
11142;DHT22;5625;50.122;19.864;2023-04-15T06:53:31;13.30;99.90
11142;DHT22;5625;50.122;19.864;2023-04-15T06:56:00;13.30;99.90
11142;DHT22;5625;50.122;19.864;2023-04-15T06:58:28;13.20;1.00
11142;DHT22;5625;50.122;19.864;2023-04-15T07:00:56;13.10;1.00
11142;DHT22;5625;50.122;19.864;2023-04-15T07:03:24;13.10;1.00
11142;DHT22;5625;50.122;19.864;2023-04-15T07:05:52;13.10;1.00
11142;DHT22;5625;50.122;19.864;2023-04-15T07:08:21;12.90;1.00
11142;DHT22;5625;50.122;19.864;2023-04-15T07:10:50;12.80;1.00
11142;DHT22;5625;50.122;19.864;2023-04-15T07:13:19;12.80;1.00
11142;DHT22;5625;50.122;19.864;2023-04-15T07:15:47;12.80;1.00
11142;DHT22;5625;50.122;19.864;2023-04-15T07:18:15;12.80;1.00
11142;DHT22;5625;50.122;19.864;2023-04-15T07:20:43;12.70;1.00
11142;DHT22;5625;50.122;19.864;2023-04-15T07:23:11;12.70;1.00
11142;DHT22;5625;50.122;19.864;2023-04-15T07:25:39;12.70;1.00
11142;DHT22;5625;50.122;19.864;2023-04-15T07:28:07;12.70;1.00
11142;DHT22;5625;50.122;19.864;2023-04-15T07:30:37;12.80;1.00
11142;DHT22;5625;50.122;19.864;2023-04-15T07:33:05;12.80;1.00
11142;DHT22;5625;50.122;19.864;2023-04-15T07:35:36;12.90;1.00
11142;DHT22;5625;50.122;19.864;2023-04-15T07:38:04;13.00;1.00
11142;DHT22;5625;50.122;19.864;2023-04-15T07:40:32;13.00;1.00
11142;DHT22;5625;50.122;19.864;2023-04-15T07:43:00;13.00;1.00
11142;DHT22;5625;50.122;19.864;2023-04-15T07:45:29;12.90;1.00
11142;DHT22;5625;50.122;19.864;2023-04-15T07:48:00;13.00;1.00
11142;DHT22;5625;50.122;19.864;2023-04-15T07:50:29;13.10;99.90
11142;DHT22;5625;50.122;19.864;2023-04-15T07:52:57;13.30;99.90
11142;DHT22;5625;50.122;19.864;2023-04-15T07:55:25;13.50;99.90
11142;DHT22;5625;50.122;19.864;2023-04-15T07:57:54;13.60;99.90
11142;DHT22;5625;50.122;19.864;2023-04-15T08:00:22;13.80;99.90
11142;DHT22;5625;50.122;19.864;2023-04-15T08:02:52;14.10;99.90
11142;DHT22;5625;50.122;19.864;2023-04-15T08:05:27;14.60;99.90
11142;DHT22;5625;50.122;19.864;2023-04-15T08:07:56;15.00;86.90
11142;DHT22;5625;50.122;19.864;2023-04-15T08:10:24;15.20;25.70
11142;DHT22;5625;50.122;19.864;2023-04-15T08:12:54;15.30;28.70
11142;DHT22;5625;50.122;19.864;2023-04-15T08:15:23;15.30;1.00
11142;DHT22;5625;50.122;19.864;2023-04-15T08:17:53;15.30;99.90
11142;DHT22;5625;50.122;19.864;2023-04-15T08:20:21;15.70;99.90
11142;DHT22;5625;50.122;19.864;2023-04-15T08:22:53;16.10;1.00
11142;DHT22;5625;50.122;19.864;2023-04-15T08:25:21;16.20;99.90
11142;DHT22;5625;50.122;19.864;2023-04-15T08:27:49;16.20;99.90
11142;DHT22;5625;50.122;19.864;2023-04-15T08:30:17;16.30;1.00
11142;DHT22;5625;50.122;19.864;2023-04-15T08:32:46;16.10;97.90
11142;DHT22;5625;50.122;19.864;2023-04-15T08:35:17;16.20;99.90
11142;DHT22;5625;50.122;19.864;2023-04-15T08:37:45;16.30;1.00
11142;DHT22;5625;50.122;19.864;2023-04-15T08:40:15;16.50;99.90
11142;DHT22;5625;50.122;19.864;2023-04-15T08:42:48;16.60;1.00
11142;DHT22;5625;50.122;19.864;2023-04-15T08:45:19;16.60;1.00
11142;DHT22;5625;50.122;19.864;2023-04-15T08:47:50;16.90;99.90
11142;DHT22;5625;50.122;19.864;2023-04-15T08:50:21;17.00;99.90
11142;DHT22;5625;50.122;19.864;2023-04-15T08:52:53;17.00;1.00
11142;DHT22;5625;50.122;19.864;2023-04-15T08:55:27;17.10;99.90
11142;DHT22;5625;50.122;19.864;2023-04-15T08:57:56;17.20;99.90
11142;DHT22;5625;50.122;19.864;2023-04-15T09:00:24;17.20;99.90
11142;DHT22;5625;50.122;19.864;2023-04-15T09:02:53;17.50;99.90
11142;DHT22;5625;50.122;19.864;2023-04-15T09:05:22;17.60;99.90
11142;DHT22;5625;50.122;19.864;2023-04-15T09:07:50;17.70;99.90
11142;DHT22;5625;50.122;19.864;2023-04-15T09:10:18;17.70;71.10
11142;DHT22;5625;50.122;19.864;2023-04-15T09:12:48;17.70;1.00
11142;DHT22;5625;50.122;19.864;2023-04-15T09:15:18;17.90;86.50
11142;DHT22;5625;50.122;19.864;2023-04-15T09:17:46;18.30;1.00
11142;DHT22;5625;50.122;19.864;2023-04-15T09:20:15;18.60;99.90
11142;DHT22;5625;50.122;19.864;2023-04-15T09:22:46;18.70;99.90
11142;DHT22;5625;50.122;19.864;2023-04-15T09:25:28;19.40;18.00
11142;DHT22;5625;50.122;19.864;2023-04-15T09:28:01;19.90;1.00
11142;DHT22;5625;50.122;19.864;2023-04-15T09:30:29;20.00;99.90
11142;DHT22;5625;50.122;19.864;2023-04-15T09:32:59;20.60;99.90
11142;DHT22;5625;50.122;19.864;2023-04-15T09:35:28;21.30;88.20
11142;DHT22;5625;50.122;19.864;2023-04-15T09:38:02;21.60;1.00
11142;DHT22;5625;50.122;19.864;2023-04-15T09:40:34;21.50;1.00
11142;DHT22;5625;50.122;19.864;2023-04-15T09:43:05;21.80;99.90
11142;DHT22;5625;50.122;19.864;2023-04-15T09:45:34;21.80;99.90
11142;DHT22;5625;50.122;19.864;2023-04-15T09:48:17;22.20;99.90
11142;DHT22;5625;50.122;19.864;2023-04-15T09:50:47;22.20;99.90
11142;DHT22;5625;50.122;19.864;2023-04-15T09:53:16;21.50;99.90
11142;DHT22;5625;50.122;19.864;2023-04-15T09:55:49;21.10;99.90
11142;DHT22;5625;50.122;19.864;2023-04-15T09:58:19;21.50;99.90
11142;DHT22;5625;50.122;19.864;2023-04-15T10:00:49;21.30;99.90
11142;DHT22;5625;50.122;19.864;2023-04-15T10:03:19;20.50;99.90
11142;DHT22;5625;50.122;19.864;2023-04-15T10:05:49;20.00;99.90
11142;DHT22;5625;50.122;19.864;2023-04-15T10:08:19;19.90;99.90
11142;DHT22;5625;50.122;19.864;2023-04-15T10:10:48;19.90;99.90
11142;DHT22;5625;50.122;19.864;2023-04-15T10:13:25;20.40;99.90
11142;DHT22;5625;50.122;19.864;2023-04-15T10:15:56;20.20;99.90
11142;DHT22;5625;50.122;19.864;2023-04-15T10:18:26;20.00;99.90
11142;DHT22;5625;50.122;19.864;2023-04-15T10:20:54;19.80;99.90
11142;DHT22;5625;50.122;19.864;2023-04-15T10:23:24;20.00;99.90
11142;DHT22;5625;50.122;19.864;2023-04-15T10:25:53;20.40;99.90
11142;DHT22;5625;50.122;19.864;2023-04-15T10:28:23;20.80;99.90
11142;DHT22;5625;50.122;19.864;2023-04-15T10:30:52;20.70;99.90
11142;DHT22;5625;50.122;19.864;2023-04-15T10:33:22;20.60;99.90
11142;DHT22;5625;50.122;19.864;2023-04-15T10:35:52;20.50;99.90
11142;DHT22;5625;50.122;19.864;2023-04-15T10:38:34;20.60;99.90
11142;DHT22;5625;50.122;19.864;2023-04-15T10:41:16;21.20;99.90
11142;DHT22;5625;50.122;19.864;2023-04-15T10:43:50;21.30;99.90
11142;DHT22;5625;50.122;19.864;2023-04-15T10:46:21;21.20;99.90
11142;DHT22;5625;50.122;19.864;2023-04-15T10:48:53;21.00;99.90
11142;DHT22;5625;50.122;19.864;2023-04-15T10:51:28;20.50;99.40
11142;DHT22;5625;50.122;19.864;2023-04-15T10:53:58;20.20;91.80
11142;DHT22;5625;50.122;19.864;2023-04-15T10:56:28;19.80;83.30
11142;DHT22;5625;50.122;19.864;2023-04-15T10:59:00;19.70;89.20
11142;DHT22;5625;50.122;19.864;2023-04-15T11:01:59;19.50;97.10
11142;DHT22;5625;50.122;19.864;2023-04-15T11:04:52;19.40;99.90
11142;DHT22;5625;50.122;19.864;2023-04-15T11:07:35;19.40;99.90
11142;DHT22;5625;50.122;19.864;2023-04-15T11:13:26;19.00;99.90
11142;DHT22;5625;50.122;19.864;2023-04-15T11:16:05;18.80;99.90
11142;DHT22;5625;50.122;19.864;2023-04-15T11:18:33;18.70;99.90
11142;DHT22;5625;50.122;19.864;2023-04-15T11:21:03;18.70;99.90
11142;DHT22;5625;50.122;19.864;2023-04-15T11:23:35;18.80;99.90
11142;DHT22;5625;50.122;19.864;2023-04-15T11:26:05;18.80;99.90
11142;DHT22;5625;50.122;19.864;2023-04-15T11:28:35;18.70;99.90
11142;DHT22;5625;50.122;19.864;2023-04-15T11:31:08;18.50;99.90
11142;DHT22;5625;50.122;19.864;2023-04-15T11:33:44;18.60;99.90
11142;DHT22;5625;50.122;19.864;2023-04-15T11:36:12;19.00;99.90
11142;DHT22;5625;50.122;19.864;2023-04-15T11:38:45;18.90;99.90
11142;DHT22;5625;50.122;19.864;2023-04-15T11:41:13;18.70;99.90
11142;DHT22;5625;50.122;19.864;2023-04-15T11:43:42;18.40;99.90
11142;DHT22;5625;50.122;19.864;2023-04-15T11:46:11;18.30;99.90
11142;DHT22;5625;50.122;19.864;2023-04-15T11:48:42;18.30;99.90
11142;DHT22;5625;50.122;19.864;2023-04-15T11:51:11;18.30;99.90
11142;DHT22;5625;50.122;19.864;2023-04-15T11:53:41;18.20;99.90
11142;DHT22;5625;50.122;19.864;2023-04-15T11:56:11;18.20;99.90
11142;DHT22;5625;50.122;19.864;2023-04-15T11:58:43;18.10;99.90
11142;DHT22;5625;50.122;19.864;2023-04-15T12:01:13;17.90;99.90
11142;DHT22;5625;50.122;19.864;2023-04-15T12:03:42;17.80;1.00
11142;DHT22;5625;50.122;19.864;2023-04-15T12:06:14;17.70;1.00
11142;DHT22;5625;50.122;19.864;2023-04-15T12:08:56;17.70;1.00
11142;DHT22;5625;50.122;19.864;2023-04-15T12:11:41;17.70;1.00
11142;DHT22;5625;50.122;19.864;2023-04-15T12:14:12;17.70;1.00
11142;DHT22;5625;50.122;19.864;2023-04-15T12:16:45;17.60;9.70
11142;DHT22;5625;50.122;19.864;2023-04-15T12:19:21;17.60;66.80
11142;DHT22;5625;50.122;19.864;2023-04-15T12:21:50;17.60;99.40
11142;DHT22;5625;50.122;19.864;2023-04-15T12:24:20;17.60;99.90
11142;DHT22;5625;50.122;19.864;2023-04-15T12:26:50;17.70;99.90
11142;DHT22;5625;50.122;19.864;2023-04-15T12:29:20;17.50;99.90
11142;DHT22;5625;50.122;19.864;2023-04-15T12:31:57;17.60;99.90
11142;DHT22;5625;50.122;19.864;2023-04-15T12:34:26;17.70;99.90
11142;DHT22;5625;50.122;19.864;2023-04-15T12:36:56;17.70;99.90
11142;DHT22;5625;50.122;19.864;2023-04-15T12:39:25;17.70;99.90
11142;DHT22;5625;50.122;19.864;2023-04-15T12:41:56;17.60;99.90
11142;DHT22;5625;50.122;19.864;2023-04-15T12:44:25;17.60;1.00
11142;DHT22;5625;50.122;19.864;2023-04-15T12:46:56;17.50;99.90
11142;DHT22;5625;50.122;19.864;2023-04-15T12:49:26;17.50;99.90
11142;DHT22;5625;50.122;19.864;2023-04-15T12:51:56;17.50;1.00
11142;DHT22;5625;50.122;19.864;2023-04-15T12:54:25;17.40;1.00
11142;DHT22;5625;50.122;19.864;2023-04-15T12:56:54;17.50;99.90
11142;DHT22;5625;50.122;19.864;2023-04-15T12:59:23;17.50;1.00
11142;DHT22;5625;50.122;19.864;2023-04-15T13:01:54;17.40;99.90
11142;DHT22;5625;50.122;19.864;2023-04-15T13:04:25;17.40;1.00
11142;DHT22;5625;50.122;19.864;2023-04-15T13:06:56;17.20;99.90
11142;DHT22;5625;50.122;19.864;2023-04-15T13:09:24;17.20;99.90
11142;DHT22;5625;50.122;19.864;2023-04-15T13:11:52;17.20;99.90
11142;DHT22;5625;50.122;19.864;2023-04-15T13:14:21;17.20;99.90
11142;DHT22;5625;50.122;19.864;2023-04-15T13:16:50;17.20;99.90
11142;DHT22;5625;50.122;19.864;2023-04-15T13:19:20;17.20;99.90
11142;DHT22;5625;50.122;19.864;2023-04-15T13:21:48;17.20;99.90
11142;DHT22;5625;50.122;19.864;2023-04-15T13:24:16;17.30;96.80
11142;DHT22;5625;50.122;19.864;2023-04-15T13:26:44;17.30;39.40
11142;DHT22;5625;50.122;19.864;2023-04-15T13:29:15;17.50;64.70
11142;DHT22;5625;50.122;19.864;2023-04-15T13:31:44;17.50;44.10
11142;DHT22;5625;50.122;19.864;2023-04-15T13:34:14;17.50;48.20
11142;DHT22;5625;50.122;19.864;2023-04-15T13:36:43;17.40;20.70
11142;DHT22;5625;50.122;19.864;2023-04-15T13:39:11;17.40;7.00
11142;DHT22;5625;50.122;19.864;2023-04-15T13:41:39;17.30;36.60
11142;DHT22;5625;50.122;19.864;2023-04-15T13:44:09;17.30;98.50
11142;DHT22;5625;50.122;19.864;2023-04-15T13:46:37;17.20;99.90
11142;DHT22;5625;50.122;19.864;2023-04-15T13:49:08;17.20;99.90
11142;DHT22;5625;50.122;19.864;2023-04-15T13:51:36;17.20;99.90
11142;DHT22;5625;50.122;19.864;2023-04-15T13:54:07;17.10;99.90
11142;DHT22;5625;50.122;19.864;2023-04-15T13:56:35;17.00;99.90
11142;DHT22;5625;50.122;19.864;2023-04-15T13:59:04;17.00;99.90
11142;DHT22;5625;50.122;19.864;2023-04-15T14:01:33;17.00;97.10
11142;DHT22;5625;50.122;19.864;2023-04-15T14:04:01;16.90;46.50
11142;DHT22;5625;50.122;19.864;2023-04-15T14:06:32;16.80;41.20
11142;DHT22;5625;50.122;19.864;2023-04-15T14:09:00;16.90;88.00
11142;DHT22;5625;50.122;19.864;2023-04-15T14:11:32;16.90;99.90
11142;DHT22;5625;50.122;19.864;2023-04-15T14:14:01;17.00;99.90
11142;DHT22;5625;50.122;19.864;2023-04-15T14:16:30;17.00;99.90
11142;DHT22;5625;50.122;19.864;2023-04-15T14:18:59;17.00;99.90
11142;DHT22;5625;50.122;19.864;2023-04-15T14:21:27;17.00;99.90
11142;DHT22;5625;50.122;19.864;2023-04-15T14:23:57;16.90;99.90
11142;DHT22;5625;50.122;19.864;2023-04-15T14:26:25;16.90;96.70
11142;DHT22;5625;50.122;19.864;2023-04-15T14:28:55;16.90;47.70
11142;DHT22;5625;50.122;19.864;2023-04-15T14:31:23;16.80;68.70
11142;DHT22;5625;50.122;19.864;2023-04-15T14:33:51;16.90;23.20
11142;DHT22;5625;50.122;19.864;2023-04-15T14:36:19;16.90;26.50
11142;DHT22;5625;50.122;19.864;2023-04-15T14:38:47;16.90;34.30
11142;DHT22;5625;50.122;19.864;2023-04-15T14:41:15;16.90;68.00
11142;DHT22;5625;50.122;19.864;2023-04-15T14:43:43;16.90;58.90
11142;DHT22;5625;50.122;19.864;2023-04-15T14:46:13;16.70;10.60
11142;DHT22;5625;50.122;19.864;2023-04-15T14:48:41;16.70;44.80
11142;DHT22;5625;50.122;19.864;2023-04-15T14:51:09;16.70;76.80
11142;DHT22;5625;50.122;19.864;2023-04-15T14:53:37;16.70;99.90
11142;DHT22;5625;50.122;19.864;2023-04-15T14:56:06;16.70;99.90
11142;DHT22;5625;50.122;19.864;2023-04-15T14:58:34;16.70;99.90
11142;DHT22;5625;50.122;19.864;2023-04-15T15:01:02;16.60;99.90
11142;DHT22;5625;50.122;19.864;2023-04-15T15:03:32;16.60;99.90
11142;DHT22;5625;50.122;19.864;2023-04-15T15:06:01;16.70;99.90
11142;DHT22;5625;50.122;19.864;2023-04-15T15:08:29;16.60;99.90
11142;DHT22;5625;50.122;19.864;2023-04-15T15:10:57;16.60;99.90
11142;DHT22;5625;50.122;19.864;2023-04-15T15:13:25;16.60;1.00
11142;DHT22;5625;50.122;19.864;2023-04-15T15:15:53;16.70;99.90
11142;DHT22;5625;50.122;19.864;2023-04-15T15:18:21;16.60;99.90
11142;DHT22;5625;50.122;19.864;2023-04-15T15:20:52;16.50;99.90
11142;DHT22;5625;50.122;19.864;2023-04-15T15:23:20;16.30;99.90
11142;DHT22;5625;50.122;19.864;2023-04-15T15:25:48;16.10;99.90
11142;DHT22;5625;50.122;19.864;2023-04-15T15:28:16;16.00;99.90
11142;DHT22;5625;50.122;19.864;2023-04-15T15:30:44;16.00;99.90
11142;DHT22;5625;50.122;19.864;2023-04-15T15:33:12;16.00;1.00
11142;DHT22;5625;50.122;19.864;2023-04-15T15:35:41;15.90;33.50
11142;DHT22;5625;50.122;19.864;2023-04-15T15:38:11;15.90;2.60
11142;DHT22;5625;50.122;19.864;2023-04-15T15:40:39;15.90;99.90
11142;DHT22;5625;50.122;19.864;2023-04-15T15:43:07;15.80;99.90
11142;DHT22;5625;50.122;19.864;2023-04-15T15:45:35;15.70;99.90
11142;DHT22;5625;50.122;19.864;2023-04-15T15:48:06;15.70;1.00
11142;DHT22;5625;50.122;19.864;2023-04-15T15:50:34;15.60;99.90
11142;DHT22;5625;50.122;19.864;2023-04-15T15:53:03;15.60;80.20
11142;DHT22;5625;50.122;19.864;2023-04-15T15:55:32;15.50;99.90